sensor_id;sensor_type;location;lat;lon;timestamp;P1;durP1;ratioP1;P2;durP2;ratioP2
24650;SDS011;12783;48.824;8.662;2022-12-07T00:01:46;68.22;;;14.00;;
24650;SDS011;12783;48.824;8.662;2022-12-07T00:04:14;57.45;;;13.60;;
24650;SDS011;12783;48.824;8.662;2022-12-07T00:06:42;262.38;;;16.63;;
24650;SDS011;12783;48.824;8.662;2022-12-07T00:09:12;479.95;;;23.13;;
24650;SDS011;12783;48.824;8.662;2022-12-07T00:11:40;816.38;;;34.55;;
24650;SDS011;12783;48.824;8.662;2022-12-07T00:14:09;457.17;;;21.65;;
24650;SDS011;12783;48.824;8.662;2022-12-07T00:16:40;381.50;;;21.80;;
24650;SDS011;12783;48.824;8.662;2022-12-07T00:19:07;307.50;;;20.30;;
24650;SDS011;12783;48.824;8.662;2022-12-07T00:21:35;204.77;;;20.63;;
24650;SDS011;12783;48.824;8.662;2022-12-07T00:24:03;196.60;;;17.58;;
24650;SDS011;12783;48.824;8.662;2022-12-07T00:26:31;172.98;;;19.50;;
24650;SDS011;12783;48.824;8.662;2022-12-07T00:29:04;158.77;;;17.40;;
24650;SDS011;12783;48.824;8.662;2022-12-07T00:31:34;169.07;;;16.52;;
24650;SDS011;12783;48.824;8.662;2022-12-07T00:34:05;48.65;;;15.88;;
24650;SDS011;12783;48.824;8.662;2022-12-07T00:36:33;64.15;;;17.88;;
24650;SDS011;12783;48.824;8.662;2022-12-07T00:39:00;38.78;;;14.55;;
24650;SDS011;12783;48.824;8.662;2022-12-07T00:41:29;125.28;;;17.23;;
24650;SDS011;12783;48.824;8.662;2022-12-07T00:43:56;48.45;;;15.15;;
24650;SDS011;12783;48.824;8.662;2022-12-07T00:46:23;281.70;;;23.10;;
24650;SDS011;12783;48.824;8.662;2022-12-07T00:48:51;117.22;;;16.65;;
24650;SDS011;12783;48.824;8.662;2022-12-07T00:51:19;430.30;;;25.73;;
24650;SDS011;12783;48.824;8.662;2022-12-07T00:53:47;77.32;;;18.33;;
24650;SDS011;12783;48.824;8.662;2022-12-07T00:56:14;40.92;;;14.07;;
24650;SDS011;12783;48.824;8.662;2022-12-07T00:58:43;100.90;;;18.88;;
24650;SDS011;12783;48.824;8.662;2022-12-07T01:01:10;210.50;;;20.15;;
24650;SDS011;12783;48.824;8.662;2022-12-07T01:03:37;615.13;;;29.25;;
24650;SDS011;12783;48.824;8.662;2022-12-07T01:06:05;189.40;;;21.80;;
24650;SDS011;12783;48.824;8.662;2022-12-07T01:08:31;64.40;;;16.40;;
24650;SDS011;12783;48.824;8.662;2022-12-07T01:11:03;77.38;;;17.63;;
24650;SDS011;12783;48.824;8.662;2022-12-07T01:13:31;95.57;;;18.38;;
24650;SDS011;12783;48.824;8.662;2022-12-07T01:16:00;303.30;;;25.80;;
24650;SDS011;12783;48.824;8.662;2022-12-07T01:18:30;59.40;;;15.95;;
24650;SDS011;12783;48.824;8.662;2022-12-07T01:21:03;57.22;;;14.95;;
24650;SDS011;12783;48.824;8.662;2022-12-07T01:23:39;802.42;;;35.00;;
24650;SDS011;12783;48.824;8.662;2022-12-07T01:26:09;86.15;;;16.17;;
24650;SDS011;12783;48.824;8.662;2022-12-07T01:28:37;101.47;;;18.35;;
24650;SDS011;12783;48.824;8.662;2022-12-07T01:31:12;85.10;;;16.85;;
24650;SDS011;12783;48.824;8.662;2022-12-07T01:33:44;630.95;;;28.55;;
24650;SDS011;12783;48.824;8.662;2022-12-07T01:36:15;95.30;;;15.75;;
24650;SDS011;12783;48.824;8.662;2022-12-07T01:39:02;126.70;;;16.73;;
24650;SDS011;12783;48.824;8.662;2022-12-07T01:41:33;61.20;;;16.67;;
24650;SDS011;12783;48.824;8.662;2022-12-07T01:44:21;83.38;;;17.67;;
24650;SDS011;12783;48.824;8.662;2022-12-07T01:46:49;69.32;;;17.80;;
24650;SDS011;12783;48.824;8.662;2022-12-07T01:49:31;63.88;;;16.10;;
24650;SDS011;12783;48.824;8.662;2022-12-07T01:52:08;450.23;;;24.77;;
24650;SDS011;12783;48.824;8.662;2022-12-07T01:54:50;58.55;;;15.73;;
24650;SDS011;12783;48.824;8.662;2022-12-07T01:57:18;56.10;;;15.00;;
24650;SDS011;12783;48.824;8.662;2022-12-07T01:59:45;64.50;;;17.02;;
24650;SDS011;12783;48.824;8.662;2022-12-07T02:02:18;65.78;;;17.42;;
24650;SDS011;12783;48.824;8.662;2022-12-07T02:04:46;47.67;;;15.25;;
24650;SDS011;12783;48.824;8.662;2022-12-07T02:07:13;77.45;;;16.60;;
24650;SDS011;12783;48.824;8.662;2022-12-07T02:09:40;56.88;;;15.85;;
24650;SDS011;12783;48.824;8.662;2022-12-07T02:12:07;60.97;;;15.45;;
24650;SDS011;12783;48.824;8.662;2022-12-07T02:14:33;54.25;;;15.73;;
24650;SDS011;12783;48.824;8.662;2022-12-07T02:17:07;39.00;;;12.55;;
24650;SDS011;12783;48.824;8.662;2022-12-07T02:19:56;41.25;;;13.20;;
24650;SDS011;12783;48.824;8.662;2022-12-07T02:30:58;22.48;;;9.90;;
24650;SDS011;12783;48.824;8.662;2022-12-07T02:33:36;27.35;;;10.57;;
24650;SDS011;12783;48.824;8.662;2022-12-07T02:36:10;22.27;;;9.23;;
24650;SDS011;12783;48.824;8.662;2022-12-07T02:39:00;21.92;;;8.73;;
24650;SDS011;12783;48.824;8.662;2022-12-07T02:41:30;26.83;;;9.38;;
24650;SDS011;12783;48.824;8.662;2022-12-07T02:44:05;22.77;;;9.80;;
24650;SDS011;12783;48.824;8.662;2022-12-07T02:46:37;27.45;;;10.10;;
24650;SDS011;12783;48.824;8.662;2022-12-07T02:49:07;24.00;;;10.25;;
24650;SDS011;12783;48.824;8.662;2022-12-07T02:51:38;25.25;;;9.00;;
24650;SDS011;12783;48.824;8.662;2022-12-07T02:54:09;19.05;;;7.72;;
24650;SDS011;12783;48.824;8.662;2022-12-07T02:57:00;17.25;;;7.88;;
24650;SDS011;12783;48.824;8.662;2022-12-07T03:00:07;16.67;;;7.30;;
24650;SDS011;12783;48.824;8.662;2022-12-07T03:02:42;14.43;;;7.05;;
24650;SDS011;12783;48.824;8.662;2022-12-07T03:18:04;13.15;;;7.15;;
24650;SDS011;12783;48.824;8.662;2022-12-07T03:20:31;18.63;;;5.95;;
24650;SDS011;12783;48.824;8.662;2022-12-07T03:22:59;11.73;;;6.80;;
24650;SDS011;12783;48.824;8.662;2022-12-07T03:25:25;16.13;;;7.47;;
24650;SDS011;12783;48.824;8.662;2022-12-07T03:27:54;13.75;;;7.20;;
24650;SDS011;12783;48.824;8.662;2022-12-07T03:30:36;13.68;;;7.55;;
24650;SDS011;12783;48.824;8.662;2022-12-07T03:33:13;10.27;;;6.18;;
24650;SDS011;12783;48.824;8.662;2022-12-07T03:35:45;10.68;;;6.53;;
24650;SDS011;12783;48.824;8.662;2022-12-07T03:40:48;12.32;;;6.38;;
24650;SDS011;12783;48.824;8.662;2022-12-07T03:43:19;13.10;;;6.65;;
24650;SDS011;12783;48.824;8.662;2022-12-07T03:45:52;10.80;;;5.50;;
24650;SDS011;12783;48.824;8.662;2022-12-07T03:48:41;11.05;;;5.72;;
24650;SDS011;12783;48.824;8.662;2022-12-07T03:54:29;8.73;;;5.43;;
24650;SDS011;12783;48.824;8.662;2022-12-07T03:56:58;8.00;;;5.00;;
24650;SDS011;12783;48.824;8.662;2022-12-07T03:59:27;9.57;;;5.32;;
24650;SDS011;12783;48.824;8.662;2022-12-07T04:01:55;8.77;;;5.10;;
24650;SDS011;12783;48.824;8.662;2022-12-07T04:04:23;8.65;;;4.82;;
24650;SDS011;12783;48.824;8.662;2022-12-07T04:06:50;9.02;;;4.80;;
24650;SDS011;12783;48.824;8.662;2022-12-07T04:09:17;7.32;;;4.07;;
24650;SDS011;12783;48.824;8.662;2022-12-07T04:11:44;6.82;;;4.30;;
24650;SDS011;12783;48.824;8.662;2022-12-07T04:14:11;5.53;;;3.70;;
24650;SDS011;12783;48.824;8.662;2022-12-07T04:19:18;6.82;;;4.25;;
24650;SDS011;12783;48.824;8.662;2022-12-07T04:21:46;8.25;;;5.07;;
24650;SDS011;12783;48.824;8.662;2022-12-07T04:24:13;7.90;;;5.00;;
24650;SDS011;12783;48.824;8.662;2022-12-07T04:26:41;7.75;;;4.95;;
24650;SDS011;12783;48.824;8.662;2022-12-07T04:29:09;9.50;;;5.28;;
24650;SDS011;12783;48.824;8.662;2022-12-07T04:31:36;9.35;;;4.90;;
24650;SDS011;12783;48.824;8.662;2022-12-07T04:34:03;6.97;;;4.32;;
24650;SDS011;12783;48.824;8.662;2022-12-07T04:36:30;6.63;;;4.30;;
24650;SDS011;12783;48.824;8.662;2022-12-07T04:38:57;6.60;;;4.07;;
24650;SDS011;12783;48.824;8.662;2022-12-07T04:41:25;6.65;;;4.45;;
24650;SDS011;12783;48.824;8.662;2022-12-07T04:43:55;5.95;;;3.80;;
24650;SDS011;12783;48.824;8.662;2022-12-07T04:46:22;7.50;;;4.25;;
24650;SDS011;12783;48.824;8.662;2022-12-07T04:48:50;5.63;;;3.63;;
24650;SDS011;12783;48.824;8.662;2022-12-07T04:51:36;6.38;;;4.30;;
24650;SDS011;12783;48.824;8.662;2022-12-07T04:54:02;8.48;;;4.70;;
24650;SDS011;12783;48.824;8.662;2022-12-07T04:56:29;6.97;;;4.90;;
24650;SDS011;12783;48.824;8.662;2022-12-07T04:58:56;7.93;;;4.72;;
24650;SDS011;12783;48.824;8.662;2022-12-07T05:01:23;9.38;;;5.28;;
24650;SDS011;12783;48.824;8.662;2022-12-07T05:03:50;7.88;;;5.03;;
24650;SDS011;12783;48.824;8.662;2022-12-07T05:06:17;9.55;;;5.80;;
24650;SDS011;12783;48.824;8.662;2022-12-07T05:08:44;10.32;;;5.22;;
24650;SDS011;12783;48.824;8.662;2022-12-07T05:11:11;8.35;;;4.85;;
24650;SDS011;12783;48.824;8.662;2022-12-07T05:14:01;8.05;;;5.00;;
24650;SDS011;12783;48.824;8.662;2022-12-07T05:16:29;11.80;;;6.35;;
24650;SDS011;12783;48.824;8.662;2022-12-07T05:18:56;15.75;;;8.63;;
24650;SDS011;12783;48.824;8.662;2022-12-07T05:21:23;14.30;;;6.97;;
24650;SDS011;12783;48.824;8.662;2022-12-07T05:23:50;18.17;;;9.57;;
24650;SDS011;12783;48.824;8.662;2022-12-07T05:26:17;20.13;;;10.15;;
24650;SDS011;12783;48.824;8.662;2022-12-07T05:28:44;16.90;;;8.50;;
24650;SDS011;12783;48.824;8.662;2022-12-07T05:31:11;13.45;;;6.97;;
24650;SDS011;12783;48.824;8.662;2022-12-07T05:33:38;17.60;;;6.53;;
24650;SDS011;12783;48.824;8.662;2022-12-07T05:36:04;11.13;;;6.25;;
24650;SDS011;12783;48.824;8.662;2022-12-07T05:38:33;12.50;;;6.22;;
24650;SDS011;12783;48.824;8.662;2022-12-07T05:41:04;8.63;;;5.28;;
24650;SDS011;12783;48.824;8.662;2022-12-07T05:43:32;10.40;;;5.35;;
24650;SDS011;12783;48.824;8.662;2022-12-07T05:45:59;12.77;;;5.63;;
24650;SDS011;12783;48.824;8.662;2022-12-07T05:48:26;11.18;;;5.18;;
24650;SDS011;12783;48.824;8.662;2022-12-07T05:50:53;9.15;;;4.90;;
24650;SDS011;12783;48.824;8.662;2022-12-07T05:53:19;8.93;;;5.00;;
24650;SDS011;12783;48.824;8.662;2022-12-07T05:55:48;7.70;;;4.13;;
24650;SDS011;12783;48.824;8.662;2022-12-07T05:58:15;7.80;;;4.05;;
24650;SDS011;12783;48.824;8.662;2022-12-07T06:01:00;7.03;;;4.25;;
24650;SDS011;12783;48.824;8.662;2022-12-07T06:03:27;7.72;;;4.40;;
24650;SDS011;12783;48.824;8.662;2022-12-07T06:05:54;5.80;;;4.05;;
24650;SDS011;12783;48.824;8.662;2022-12-07T06:08:21;8.45;;;4.55;;
24650;SDS011;12783;48.824;8.662;2022-12-07T06:10:48;6.65;;;4.00;;
24650;SDS011;12783;48.824;8.662;2022-12-07T06:13:34;5.78;;;3.53;;
24650;SDS011;12783;48.824;8.662;2022-12-07T06:16:01;6.18;;;3.60;;
24650;SDS011;12783;48.824;8.662;2022-12-07T06:18:28;6.95;;;4.15;;
24650;SDS011;12783;48.824;8.662;2022-12-07T06:20:54;5.90;;;3.83;;
24650;SDS011;12783;48.824;8.662;2022-12-07T06:23:21;6.03;;;3.65;;
24650;SDS011;12783;48.824;8.662;2022-12-07T06:25:48;6.35;;;3.67;;
24650;SDS011;12783;48.824;8.662;2022-12-07T06:28:15;5.90;;;3.58;;
24650;SDS011;12783;48.824;8.662;2022-12-07T06:30:41;4.28;;;3.15;;
24650;SDS011;12783;48.824;8.662;2022-12-07T06:33:08;7.70;;;3.78;;
24650;SDS011;12783;48.824;8.662;2022-12-07T06:35:35;6.57;;;3.75;;
24650;SDS011;12783;48.824;8.662;2022-12-07T06:38:01;7.82;;;3.72;;
24650;SDS011;12783;48.824;8.662;2022-12-07T06:40:28;6.32;;;3.65;;
24650;SDS011;12783;48.824;8.662;2022-12-07T06:42:55;6.28;;;3.60;;
24650;SDS011;12783;48.824;8.662;2022-12-07T06:45:21;5.78;;;4.03;;
24650;SDS011;12783;48.824;8.662;2022-12-07T06:47:48;5.75;;;3.55;;
24650;SDS011;12783;48.824;8.662;2022-12-07T06:50:15;7.00;;;3.95;;
24650;SDS011;12783;48.824;8.662;2022-12-07T06:52:42;5.40;;;3.92;;
24650;SDS011;12783;48.824;8.662;2022-12-07T06:55:08;6.93;;;3.90;;
24650;SDS011;12783;48.824;8.662;2022-12-07T06:57:35;7.13;;;4.25;;
24650;SDS011;12783;48.824;8.662;2022-12-07T07:00:03;5.78;;;3.35;;
24650;SDS011;12783;48.824;8.662;2022-12-07T07:02:31;7.53;;;4.03;;
24650;SDS011;12783;48.824;8.662;2022-12-07T07:04:58;6.35;;;3.70;;
24650;SDS011;12783;48.824;8.662;2022-12-07T07:07:24;5.53;;;3.65;;
24650;SDS011;12783;48.824;8.662;2022-12-07T07:09:51;7.00;;;4.43;;
24650;SDS011;12783;48.824;8.662;2022-12-07T07:12:18;5.88;;;3.58;;
24650;SDS011;12783;48.824;8.662;2022-12-07T07:14:44;7.25;;;3.58;;
24650;SDS011;12783;48.824;8.662;2022-12-07T07:17:11;10.32;;;4.03;;
24650;SDS011;12783;48.824;8.662;2022-12-07T07:19:38;6.13;;;3.88;;
24650;SDS011;12783;48.824;8.662;2022-12-07T07:22:05;8.45;;;4.30;;
24650;SDS011;12783;48.824;8.662;2022-12-07T07:24:31;8.05;;;4.20;;
24650;SDS011;12783;48.824;8.662;2022-12-07T07:26:58;5.78;;;3.70;;
24650;SDS011;12783;48.824;8.662;2022-12-07T07:29:25;6.80;;;4.50;;
24650;SDS011;12783;48.824;8.662;2022-12-07T07:31:52;8.10;;;4.70;;
24650;SDS011;12783;48.824;8.662;2022-12-07T07:34:18;5.85;;;3.50;;
24650;SDS011;12783;48.824;8.662;2022-12-07T07:36:45;6.60;;;4.13;;
24650;SDS011;12783;48.824;8.662;2022-12-07T07:39:12;5.32;;;3.95;;
24650;SDS011;12783;48.824;8.662;2022-12-07T07:41:39;5.72;;;3.60;;
24650;SDS011;12783;48.824;8.662;2022-12-07T07:44:05;6.30;;;3.83;;
24650;SDS011;12783;48.824;8.662;2022-12-07T07:46:32;4.85;;;3.53;;
24650;SDS011;12783;48.824;8.662;2022-12-07T07:48:59;5.07;;;3.53;;
24650;SDS011;12783;48.824;8.662;2022-12-07T07:51:26;5.63;;;3.45;;
24650;SDS011;12783;48.824;8.662;2022-12-07T07:53:53;6.13;;;3.42;;
24650;SDS011;12783;48.824;8.662;2022-12-07T07:56:20;5.68;;;3.70;;
24650;SDS011;12783;48.824;8.662;2022-12-07T07:58:47;6.43;;;3.80;;
24650;SDS011;12783;48.824;8.662;2022-12-07T08:01:14;7.70;;;3.58;;
24650;SDS011;12783;48.824;8.662;2022-12-07T08:03:42;5.45;;;3.38;;
24650;SDS011;12783;48.824;8.662;2022-12-07T08:06:09;5.75;;;3.40;;
24650;SDS011;12783;48.824;8.662;2022-12-07T08:08:35;6.00;;;3.60;;
24650;SDS011;12783;48.824;8.662;2022-12-07T08:11:05;6.70;;;3.72;;
24650;SDS011;12783;48.824;8.662;2022-12-07T08:13:33;5.00;;;3.55;;
24650;SDS011;12783;48.824;8.662;2022-12-07T08:16:03;7.28;;;3.92;;
24650;SDS011;12783;48.824;8.662;2022-12-07T08:18:34;8.50;;;3.90;;
24650;SDS011;12783;48.824;8.662;2022-12-07T08:21:05;6.53;;;3.80;;
24650;SDS011;12783;48.824;8.662;2022-12-07T08:23:33;8.07;;;4.10;;
24650;SDS011;12783;48.824;8.662;2022-12-07T08:26:09;7.57;;;4.40;;
24650;SDS011;12783;48.824;8.662;2022-12-07T08:28:37;6.25;;;3.83;;
24650;SDS011;12783;48.824;8.662;2022-12-07T08:31:06;6.95;;;3.75;;
24650;SDS011;12783;48.824;8.662;2022-12-07T08:33:35;8.13;;;4.10;;
24650;SDS011;12783;48.824;8.662;2022-12-07T08:36:03;8.85;;;4.32;;
24650;SDS011;12783;48.824;8.662;2022-12-07T08:38:32;5.32;;;3.70;;
24650;SDS011;12783;48.824;8.662;2022-12-07T08:40:59;7.90;;;3.85;;
24650;SDS011;12783;48.824;8.662;2022-12-07T08:43:26;6.78;;;3.90;;
24650;SDS011;12783;48.824;8.662;2022-12-07T08:45:56;8.52;;;3.70;;
24650;SDS011;12783;48.824;8.662;2022-12-07T08:48:45;7.05;;;3.90;;
24650;SDS011;12783;48.824;8.662;2022-12-07T08:51:23;6.32;;;3.88;;
24650;SDS011;12783;48.824;8.662;2022-12-07T08:53:51;6.65;;;4.32;;
24650;SDS011;12783;48.824;8.662;2022-12-07T08:56:18;11.10;;;4.50;;
24650;SDS011;12783;48.824;8.662;2022-12-07T08:58:46;5.88;;;3.80;;
24650;SDS011;12783;48.824;8.662;2022-12-07T09:01:12;7.50;;;3.55;;
24650;SDS011;12783;48.824;8.662;2022-12-07T09:03:39;8.48;;;3.80;;
24650;SDS011;12783;48.824;8.662;2022-12-07T09:06:06;7.93;;;4.03;;
24650;SDS011;12783;48.824;8.662;2022-12-07T09:08:39;9.70;;;4.30;;
24650;SDS011;12783;48.824;8.662;2022-12-07T09:11:07;8.23;;;4.65;;
24650;SDS011;12783;48.824;8.662;2022-12-07T09:13:34;6.68;;;4.32;;
24650;SDS011;12783;48.824;8.662;2022-12-07T09:16:01;8.35;;;5.15;;
24650;SDS011;12783;48.824;8.662;2022-12-07T09:18:28;11.57;;;5.03;;
24650;SDS011;12783;48.824;8.662;2022-12-07T09:20:55;6.80;;;4.15;;
24650;SDS011;12783;48.824;8.662;2022-12-07T09:23:22;8.20;;;4.75;;
24650;SDS011;12783;48.824;8.662;2022-12-07T09:25:49;8.63;;;3.95;;
24650;SDS011;12783;48.824;8.662;2022-12-07T09:28:16;8.27;;;3.97;;
24650;SDS011;12783;48.824;8.662;2022-12-07T09:30:46;6.10;;;4.00;;
24650;SDS011;12783;48.824;8.662;2022-12-07T09:33:33;9.90;;;4.15;;
24650;SDS011;12783;48.824;8.662;2022-12-07T09:36:00;6.07;;;3.95;;
24650;SDS011;12783;48.824;8.662;2022-12-07T09:38:27;6.72;;;3.78;;
24650;SDS011;12783;48.824;8.662;2022-12-07T09:40:55;6.97;;;3.97;;
24650;SDS011;12783;48.824;8.662;2022-12-07T09:43:23;7.68;;;3.72;;
24650;SDS011;12783;48.824;8.662;2022-12-07T09:45:52;7.13;;;4.05;;
24650;SDS011;12783;48.824;8.662;2022-12-07T09:48:21;6.07;;;3.72;;
24650;SDS011;12783;48.824;8.662;2022-12-07T09:53:50;7.28;;;3.78;;
24650;SDS011;12783;48.824;8.662;2022-12-07T09:56:18;5.70;;;3.38;;
24650;SDS011;12783;48.824;8.662;2022-12-07T09:58:46;5.47;;;3.55;;
24650;SDS011;12783;48.824;8.662;2022-12-07T10:01:20;6.22;;;3.75;;
24650;SDS011;12783;48.824;8.662;2022-12-07T10:06:17;5.60;;;3.40;;
24650;SDS011;12783;48.824;8.662;2022-12-07T10:08:44;7.10;;;3.42;;
24650;SDS011;12783;48.824;8.662;2022-12-07T10:11:11;6.05;;;3.35;;
24650;SDS011;12783;48.824;8.662;2022-12-07T10:13:41;5.72;;;3.50;;
24650;SDS011;12783;48.824;8.662;2022-12-07T10:19:04;6.50;;;3.45;;
24650;SDS011;12783;48.824;8.662;2022-12-07T10:21:58;8.18;;;4.90;;
24650;SDS011;12783;48.824;8.662;2022-12-07T10:24:37;7.45;;;3.53;;
24650;SDS011;12783;48.824;8.662;2022-12-07T10:29:52;6.85;;;3.58;;
24650;SDS011;12783;48.824;8.662;2022-12-07T10:34:45;6.53;;;3.90;;
24650;SDS011;12783;48.824;8.662;2022-12-07T10:37:18;5.57;;;3.50;;
24650;SDS011;12783;48.824;8.662;2022-12-07T10:39:47;5.93;;;3.63;;
24650;SDS011;12783;48.824;8.662;2022-12-07T10:42:19;5.68;;;3.70;;
24650;SDS011;12783;48.824;8.662;2022-12-07T10:45:07;6.90;;;4.18;;
24650;SDS011;12783;48.824;8.662;2022-12-07T10:48:02;6.70;;;3.70;;
24650;SDS011;12783;48.824;8.662;2022-12-07T10:50:47;7.18;;;4.18;;
24650;SDS011;12783;48.824;8.662;2022-12-07T10:53:28;6.00;;;3.95;;
24650;SDS011;12783;48.824;8.662;2022-12-07T10:56:19;9.85;;;4.70;;
24650;SDS011;12783;48.824;8.662;2022-12-07T11:04:54;9.82;;;5.18;;
24650;SDS011;12783;48.824;8.662;2022-12-07T11:19:27;8.10;;;4.30;;
24650;SDS011;12783;48.824;8.662;2022-12-07T11:22:15;10.30;;;5.10;;
24650;SDS011;12783;48.824;8.662;2022-12-07T11:25:02;10.13;;;4.63;;
24650;SDS011;12783;48.824;8.662;2022-12-07T11:34:08;8.15;;;4.53;;
24650;SDS011;12783;48.824;8.662;2022-12-07T11:36:43;11.07;;;5.30;;
24650;SDS011;12783;48.824;8.662;2022-12-07T11:42:16;9.43;;;5.30;;
24650;SDS011;12783;48.824;8.662;2022-12-07T11:45:03;10.80;;;6.22;;
24650;SDS011;12783;48.824;8.662;2022-12-07T11:50:25;14.77;;;7.28;;
24650;SDS011;12783;48.824;8.662;2022-12-07T11:55:39;15.50;;;7.10;;
24650;SDS011;12783;48.824;8.662;2022-12-07T12:06:37;15.27;;;8.10;;
24650;SDS011;12783;48.824;8.662;2022-12-07T12:20:50;17.90;;;8.70;;
24650;SDS011;12783;48.824;8.662;2022-12-07T12:23:23;16.98;;;8.73;;
24650;SDS011;12783;48.824;8.662;2022-12-07T12:25:56;17.10;;;8.75;;
24650;SDS011;12783;48.824;8.662;2022-12-07T12:31:14;19.83;;;8.50;;
24650;SDS011;12783;48.824;8.662;2022-12-07T12:33:47;16.38;;;8.75;;
24650;SDS011;12783;48.824;8.662;2022-12-07T12:36:52;14.82;;;8.00;;
24650;SDS011;12783;48.824;8.662;2022-12-07T12:39:16;19.05;;;8.88;;
24650;SDS011;12783;48.824;8.662;2022-12-07T12:46:45;17.85;;;8.52;;
24650;SDS011;12783;48.824;8.662;2022-12-07T12:49:30;19.07;;;9.17;;
24650;SDS011;12783;48.824;8.662;2022-12-07T12:52:00;15.80;;;8.70;;
24650;SDS011;12783;48.824;8.662;2022-12-07T12:55:41;19.52;;;7.88;;
24650;SDS011;12783;48.824;8.662;2022-12-07T12:57:37;17.05;;;9.32;;
24650;SDS011;12783;48.824;8.662;2022-12-07T13:00:20;18.98;;;9.45;;
24650;SDS011;12783;48.824;8.662;2022-12-07T13:02:50;17.98;;;10.02;;
24650;SDS011;12783;48.824;8.662;2022-12-07T13:08:01;18.52;;;9.88;;
24650;SDS011;12783;48.824;8.662;2022-12-07T13:10:33;19.92;;;9.18;;
24650;SDS011;12783;48.824;8.662;2022-12-07T13:23:39;20.83;;;10.07;;
24650;SDS011;12783;48.824;8.662;2022-12-07T13:29:13;22.95;;;10.05;;
24650;SDS011;12783;48.824;8.662;2022-12-07T13:34:32;22.73;;;10.57;;
24650;SDS011;12783;48.824;8.662;2022-12-07T13:37:18;22.30;;;10.65;;
24650;SDS011;12783;48.824;8.662;2022-12-07T13:39:52;19.17;;;9.50;;
24650;SDS011;12783;48.824;8.662;2022-12-07T13:42:30;19.65;;;9.73;;
24650;SDS011;12783;48.824;8.662;2022-12-07T13:44:58;17.98;;;8.70;;
24650;SDS011;12783;48.824;8.662;2022-12-07T13:47:41;20.25;;;9.30;;
24650;SDS011;12783;48.824;8.662;2022-12-07T13:50:31;19.38;;;9.65;;
24650;SDS011;12783;48.824;8.662;2022-12-07T13:52:59;18.13;;;9.27;;
24650;SDS011;12783;48.824;8.662;2022-12-07T13:55:29;18.02;;;8.95;;
24650;SDS011;12783;48.824;8.662;2022-12-07T13:57:56;15.18;;;8.13;;
24650;SDS011;12783;48.824;8.662;2022-12-07T14:00:24;14.27;;;7.57;;
24650;SDS011;12783;48.824;8.662;2022-12-07T14:05:38;18.73;;;8.80;;
24650;SDS011;12783;48.824;8.662;2022-12-07T14:13:34;20.58;;;9.00;;
24650;SDS011;12783;48.824;8.662;2022-12-07T14:18:47;28.20;;;11.65;;
24650;SDS011;12783;48.824;8.662;2022-12-07T14:21:15;27.73;;;11.55;;
24650;SDS011;12783;48.824;8.662;2022-12-07T14:23:46;32.70;;;13.00;;
24650;SDS011;12783;48.824;8.662;2022-12-07T14:26:36;35.42;;;12.45;;
24650;SDS011;12783;48.824;8.662;2022-12-07T14:31:52;28.17;;;11.10;;
24650;SDS011;12783;48.824;8.662;2022-12-07T14:34:20;24.38;;;11.27;;
24650;SDS011;12783;48.824;8.662;2022-12-07T14:36:47;22.95;;;9.60;;
24650;SDS011;12783;48.824;8.662;2022-12-07T14:39:14;37.22;;;14.27;;
24650;SDS011;12783;48.824;8.662;2022-12-07T14:41:41;25.20;;;12.30;;
24650;SDS011;12783;48.824;8.662;2022-12-07T14:44:17;25.63;;;11.25;;
24650;SDS011;12783;48.824;8.662;2022-12-07T14:46:51;25.35;;;10.57;;
24650;SDS011;12783;48.824;8.662;2022-12-07T14:49:38;22.13;;;9.70;;
24650;SDS011;12783;48.824;8.662;2022-12-07T14:52:05;21.30;;;10.27;;
24650;SDS011;12783;48.824;8.662;2022-12-07T14:54:54;18.58;;;9.50;;
24650;SDS011;12783;48.824;8.662;2022-12-07T14:57:21;22.98;;;10.20;;
24650;SDS011;12783;48.824;8.662;2022-12-07T14:59:47;20.73;;;8.38;;
24650;SDS011;12783;48.824;8.662;2022-12-07T15:02:15;21.20;;;10.43;;
24650;SDS011;12783;48.824;8.662;2022-12-07T15:04:42;22.40;;;11.80;;
24650;SDS011;12783;48.824;8.662;2022-12-07T15:07:12;25.88;;;12.27;;
24650;SDS011;12783;48.824;8.662;2022-12-07T15:09:43;24.95;;;12.05;;
24650;SDS011;12783;48.824;8.662;2022-12-07T15:12:10;25.83;;;12.20;;
24650;SDS011;12783;48.824;8.662;2022-12-07T15:14:37;26.17;;;12.23;;
24650;SDS011;12783;48.824;8.662;2022-12-07T15:17:04;32.00;;;13.10;;
24650;SDS011;12783;48.824;8.662;2022-12-07T15:19:34;26.88;;;12.57;;
24650;SDS011;12783;48.824;8.662;2022-12-07T15:22:01;32.85;;;12.68;;
24650;SDS011;12783;48.824;8.662;2022-12-07T15:24:28;34.28;;;13.00;;
24650;SDS011;12783;48.824;8.662;2022-12-07T15:26:55;31.58;;;12.07;;
24650;SDS011;12783;48.824;8.662;2022-12-07T15:29:22;26.00;;;12.48;;
24650;SDS011;12783;48.824;8.662;2022-12-07T15:31:50;25.65;;;11.65;;
24650;SDS011;12783;48.824;8.662;2022-12-07T15:34:23;27.15;;;13.38;;
24650;SDS011;12783;48.824;8.662;2022-12-07T15:36:51;28.30;;;12.43;;
24650;SDS011;12783;48.824;8.662;2022-12-07T15:39:18;32.22;;;14.07;;
24650;SDS011;12783;48.824;8.662;2022-12-07T15:41:44;24.48;;;11.80;;
24650;SDS011;12783;48.824;8.662;2022-12-07T15:44:12;29.52;;;13.68;;
24650;SDS011;12783;48.824;8.662;2022-12-07T15:46:58;32.63;;;15.02;;
24650;SDS011;12783;48.824;8.662;2022-12-07T15:49:25;62.53;;;29.38;;
24650;SDS011;12783;48.824;8.662;2022-12-07T15:51:53;96.32;;;16.92;;
24650;SDS011;12783;48.824;8.662;2022-12-07T15:54:20;401.13;;;22.55;;
24650;SDS011;12783;48.824;8.662;2022-12-07T15:56:58;128.10;;;18.23;;
24650;SDS011;12783;48.824;8.662;2022-12-07T15:59:25;114.03;;;25.77;;
24650;SDS011;12783;48.824;8.662;2022-12-07T16:01:53;145.45;;;22.80;;
24650;SDS011;12783;48.824;8.662;2022-12-07T16:04:20;93.40;;;19.65;;
24650;SDS011;12783;48.824;8.662;2022-12-07T16:06:47;127.43;;;18.00;;
24650;SDS011;12783;48.824;8.662;2022-12-07T16:09:14;120.10;;;18.00;;
24650;SDS011;12783;48.824;8.662;2022-12-07T16:11:40;153.50;;;22.13;;
24650;SDS011;12783;48.824;8.662;2022-12-07T16:14:07;173.32;;;20.52;;
24650;SDS011;12783;48.824;8.662;2022-12-07T16:16:34;91.07;;;17.42;;
24650;SDS011;12783;48.824;8.662;2022-12-07T16:19:01;71.10;;;17.85;;
24650;SDS011;12783;48.824;8.662;2022-12-07T16:21:28;58.55;;;15.52;;
24650;SDS011;12783;48.824;8.662;2022-12-07T16:23:57;147.63;;;17.67;;
24650;SDS011;12783;48.824;8.662;2022-12-07T16:26:24;67.90;;;16.13;;
24650;SDS011;12783;48.824;8.662;2022-12-07T16:28:52;91.10;;;21.33;;
24650;SDS011;12783;48.824;8.662;2022-12-07T16:31:20;76.60;;;19.23;;
24650;SDS011;12783;48.824;8.662;2022-12-07T16:33:48;52.65;;;16.60;;
24650;SDS011;12783;48.824;8.662;2022-12-07T16:36:15;58.15;;;16.00;;
24650;SDS011;12783;48.824;8.662;2022-12-07T16:39:03;48.35;;;13.73;;
24650;SDS011;12783;48.824;8.662;2022-12-07T16:41:30;53.75;;;13.90;;
24650;SDS011;12783;48.824;8.662;2022-12-07T16:44:00;59.40;;;15.90;;
24650;SDS011;12783;48.824;8.662;2022-12-07T16:48:59;41.60;;;12.68;;
24650;SDS011;12783;48.824;8.662;2022-12-07T16:51:26;38.50;;;12.52;;
24650;SDS011;12783;48.824;8.662;2022-12-07T16:53:54;35.88;;;12.68;;
24650;SDS011;12783;48.824;8.662;2022-12-07T16:56:20;36.47;;;12.48;;
24650;SDS011;12783;48.824;8.662;2022-12-07T16:58:47;39.28;;;11.80;;
24650;SDS011;12783;48.824;8.662;2022-12-07T17:01:16;39.17;;;14.13;;
24650;SDS011;12783;48.824;8.662;2022-12-07T17:03:45;43.53;;;13.82;;
24650;SDS011;12783;48.824;8.662;2022-12-07T17:06:13;41.72;;;13.15;;
24650;SDS011;12783;48.824;8.662;2022-12-07T17:08:41;45.13;;;13.48;;
24650;SDS011;12783;48.824;8.662;2022-12-07T17:11:09;42.92;;;13.70;;
24650;SDS011;12783;48.824;8.662;2022-12-07T17:13:40;40.70;;;12.50;;